Home > Products > Valid Products > MTR

000
SAUS43 KDDC 260100
MTRP28
METAR KP28 260056Z AUTO 12005KT 24/14 A2997 RMK AO1 SLP140 T02440139





000
SAUS43 KDDC 260000
MTRP28
METAR KP28 252356Z AUTO 11004KT 27/14 A2997 RMK AO1 SLP138 T02670139
10317 20267 58012





000
SAUS43 KDDC 252300
MTRP28
METAR KP28 252256Z AUTO 16005KT 30/13 A2998 RMK AO1 SLP141 T03000133





000
SAUS43 KDDC 252200
MTRP28
METAR KP28 252156Z AUTO 16006KT 31/13 A2999 RMK AO1 SLP144 T03060133





000
SAUS43 KDDC 252100
MTRP28
METAR KP28 252056Z AUTO VRB04KT 31/13 A3000 RMK AO1 SLP146 T03110128
56017





000
SAUS43 KDDC 252000
MTRP28
METAR KP28 251956Z AUTO 20010KT 32/09 A3001 RMK AO1 SLP149 T03170089





000
SAUS43 KDDC 251900
MTRP28
METAR KP28 251856Z AUTO VRB05KT 31/13 A3003 RMK AO1 SLP155 T03060133





000
SAUS43 KDDC 251900
MTRP28
METAR KP28 251856Z AUTO VRB05KT 31/13 A3003 RMK AO1 SLP155 T03060133





000
SAUS43 KDDC 251800
MTRP28
METAR KP28 251756Z AUTO VRB05KT 28/15 A3005 RMK AO1 SLP165 T02780150
10278 20100 58010





000
SAUS43 KDDC 251800
MTRP28
METAR KP28 251756Z AUTO VRB05KT 28/15 A3005 RMK AO1 SLP165 T02780150
10278 20100 58010





000
SAUS43 KDDC 251700
MTRP28
METAR KP28 251656Z AUTO VRB04KT 26/16 A3007 RMK AO1 SLP168 T02560156





000
SAUS43 KDDC 251700
MTRP28
METAR KP28 251656Z AUTO VRB04KT 26/16 A3007 RMK AO1 SLP168 T02560156





000
SAUS43 KDDC 251600
MTRP28
METAR KP28 251556Z AUTO VRB03KT 23/17 A3007 RMK AO1 SLP171 T02280167





000
SAUS43 KDDC 251500
MTRP28
METAR KP28 251456Z AUTO 17003KT 18/16 A3008 RMK AO1 SLP177 T01830156
53014





000
SAUS43 KDDC 251400
MTRP28
METAR KP28 251356Z AUTO 07004KT 12/12 A3006 RMK AO1 SLP174 T01220117





000
SAUS43 KDDC 251300
MTRP28
METAR KP28 251256Z AUTO 36003KT 10/10 A3004 RMK AO1 SLP168 T01000100





000
SAUS43 KDDC 251200
MTRP28
METAR KP28 251156Z AUTO 00000KT 11/11 A3004 RMK AO1 SLP164 T01110111
10150 20111 53004





000
SAUS43 KDDC 251200
MTRP28
METAR KP28 251156Z AUTO 00000KT 11/11 A3004 RMK AO1 SLP164 T01110111
10150 20111 53004





000
SAUS43 KDDC 251100
MTRP28
METAR KP28 251056Z AUTO 36003KT 11/11 A3003 RMK AO1 SLP159 T01110106





000
SAUS43 KDDC 251100
MTRP28
METAR KP28 251056Z AUTO 36003KT 11/11 A3003 RMK AO1 SLP159 T01110106





000
SAUS43 KDDC 251000
MTRP28
METAR KP28 250956Z AUTO 36004KT 12/12 A3003 RMK AO1 SLP158 T01170117





000
SAUS43 KDDC 250900
MTRP28
METAR KP28 250856Z AUTO 00000KT 13/13 A3003 RMK AO1 SLP157 T01330128
58003





000
SAUS43 KDDC 250800
MTRP28
METAR KP28 250756Z AUTO 36003KT 13/13 A3004 RMK AO1 SLP159 T01330128





000
SAUS43 KDDC 250701
MTRP28
METAR KP28 250656Z AUTO 00000KT 14/13 A3004 RMK AO1 SLP161 T01440133





000
SAUS43 KDDC 250600
MTRP28
METAR KP28 250556Z AUTO 00000KT 14/14 A3004 RMK AO1 SLP162 T01440139
10244 20144 402940128 51002





000
SAUS43 KDDC 250500
MTRP28
METAR KP28 250456Z AUTO 13003KT 19/16 A3004 RMK AO1 SLP160 T01940161





000
SAUS43 KDDC 250400
MTRP28
METAR KP28 250356Z AUTO 13004KT 20/16 A3004 RMK AO1 SLP164 T02000161





000
SAUS43 KDDC 250400
MTRP28
METAR KP28 250356Z AUTO 13004KT 20/16 A3004 RMK AO1 SLP164 T02000161





000
SAUS43 KDDC 250300
MTRP28
METAR KP28 250256Z AUTO 15004KT 21/17 A3003 RMK AO1 SLP162 T02060167
51012





000
SAUS43 KDDC 250200
MTRP28
METAR KP28 250156Z AUTO 16004KT 22/17 A3002 RMK AO1 SLP157 T02170167





000
SAUS43 KDDC 250100
MTRP28
METAR KP28 250056Z AUTO 16005KT 23/17 A3001 RMK AO1 SLP155 T02280167





000
SAUS43 KDDC 250000
MTRP28
METAR KP28 242356Z AUTO 16005KT 24/17 A3000 RMK AO1 SLP148 T02440167
10294 20239 53003





000
SAUS43 KDDC 242300
MTRP28
METAR KP28 242256Z AUTO 17006KT 28/16 A2999 RMK AO1 SLP144 T02780161





000
SAUS43 KDDC 242200
MTRP28
METAR KP28 242156Z AUTO 18010KT 28/16 A2999 RMK AO1 SLP142 T02830161





000
SAUS43 KDDC 242100
MTRP28
METAR KP28 242056Z AUTO 18009G15KT 29/16 A2998 RMK AO1 SLP141
T02890161 56021





000
SAUS43 KDDC 242000
MTRP28
METAR KP28 241956Z AUTO 17007KT 28/16 A2999 RMK AO1 SLP145 T02830161





000
SAUS43 KDDC 241900
MTRP28
METAR KP28 241856Z AUTO 19007KT 26/17 A3002 RMK AO1 SLP155 T02610167





000
SAUS43 KDDC 241800
MTRP28
METAR KP28 241756Z AUTO 20005KT 24/16 A3005 RMK AO1 SLP165 T02390161
10239 20128 58009





000
SAUS43 KDDC 241700
MTRP28
METAR KP28 241656Z AUTO 19006KT 21/16 A3006 RMK AO1 SLP171 T02110161





000
SAUS43 KDDC 241600
MTRP28
METAR KP28 241556Z AUTO 18008KT 17/16 A3008 RMK AO1 SLP179 T01720156





000
SAUS43 KDDC 241502 COR
MTRP28
METAR KP28 241456Z AUTO 17004KT 15/15 A3008 RMK AO1 SLP178 T01500150
51009





000
SAUS43 KDDC 241501 COR
MTRP28
METAR KP28 241456Z AUTO 17004KT 15/15 A3008 RMK AO1 SLP178 T01500150
51009





000
SAUS43 KDDC 241400
MTRP28
METAR KP28 241356Z AUTO 00000KT 13/13 A3008 RMK AO1 SLP178 T01330133





000
SAUS43 KDDC 241300
MTRP28
METAR KP28 241256Z AUTO 00000KT 13/13 A3005 RMK AO1 SLP171 T01330133





000
SAUS43 KDDC 241200
MTRP28
METAR KP28 241156Z AUTO 00000KT 13/13 A3005 RMK AO1 SLP167 T01330133
10161 20133 55000





000
SAUS43 KDDC 241100
MTRP28
METAR KP28 241056Z AUTO 14003KT 13/13 A3004 RMK AO1 SLP165 T01330133





000
SAUS43 KDDC 241000
MTRP28
METAR KP28 240956Z AUTO 00000KT 13/13 A3004 RMK AO1 SLP165 T01330133





000
SAUS43 KDDC 241000
MTRP28
METAR KP28 240956Z AUTO 00000KT 13/13 A3004 RMK AO1 SLP165 T01330133





000
SAUS43 KDDC 240900
MTRP28
METAR KP28 240856Z AUTO 12004KT 14/14 A3005 RMK AO1 SLP165 T01440144
58005





000
SAUS43 KDDC 240800
MTRP28
METAR KP28 240756Z AUTO 11005KT 15/14 A3006 RMK AO1 SLP169 T01500144





000
SAUS43 KDDC 240700
MTRP28
METAR KP28 240656Z AUTO 11005KT 16/15 A3006 RMK AO1 SLP170 T01610150





000
SAUS43 KDDC 240600
MTRP28
METAR KP28 240556Z AUTO 00000KT 16/15 A3006 RMK AO1 SLP172 T01610150
10211 20150 402440139 53000





000
SAUS43 KDDC 240500
MTRP28
METAR KP28 240456Z AUTO 00000KT 17/16 A3006 RMK AO1 SLP171 T01720156





000
SAUS43 KDDC 240500
MTRP28
METAR KP28 240456Z AUTO 00000KT 17/16 A3006 RMK AO1 SLP171 T01720156





000
SAUS43 KDDC 240400
MTRP28
METAR KP28 240356Z AUTO 14005KT 17/16 A3006 RMK AO1 SLP172 T01720156





000
SAUS43 KDDC 240400
MTRP28
METAR KP28 240356Z AUTO 14005KT 17/16 A3006 RMK AO1 SLP172 T01720156





000
SAUS43 KDDC 240300
MTRP28
METAR KP28 240256Z AUTO 11006KT 18/16 A3006 RMK AO1 SLP173 T01780156
50009





000
SAUS43 KDDC 240300
MTRP28
METAR KP28 240256Z AUTO 11006KT 18/16 A3006 RMK AO1 SLP173 T01780156
50009





000
SAUS43 KDDC 240200
MTRP28
METAR KP28 240156Z AUTO 11005KT 19/16 A3007 RMK AO1 SLP174 T01890156





000
SAUS43 KDDC 240200
MTRP28
METAR KP28 240156Z AUTO 11005KT 19/16 A3007 RMK AO1 SLP174 T01890156





000
SAUS43 KDDC 240100
MTRP28
METAR KP28 240056Z AUTO 11005KT 19/16 A3006 RMK AO1 SLP171 T01940156





000
SAUS43 KDDC 240000
MTRP28
METAR KP28 232356Z AUTO 13005KT 21/16 A3004 RMK AO1 SLP163 T02110156
10244 20206 53002





000
SAUS43 KDDC 232300
MTRP28
METAR KP28 232256Z AUTO 14005KT 23/16 A3003 RMK AO1 SLP157 T02280156





000
SAUS43 KDDC 232200
MTRP28
METAR KP28 232156Z AUTO 12009KT 24/16 A3002 RMK AO1 SLP156 T02390156





000
SAUS43 KDDC 232100
MTRP28
METAR KP28 232056Z AUTO 11005KT 24/16 A3003 RMK AO1 SLP158 T02390156
56019





000
SAUS43 KDDC 232003 COR
MTRP28
METAR KP28 231956Z AUTO 00000KT 23/16 A3004 RMK AO1 SLP161 T02330156





000
SAUS43 KDDC 232001 COR
MTRP28
METAR KP28 231956Z AUTO 00000KT 23/16 A3004 RMK AO1 SLP161 T02330156





000
SAUS43 KDDC 231900
MTRP28
METAR KP28 231856Z AUTO 17003KT 22/16 A3006 RMK AO1 SLP170 T02170156





000
SAUS43 KDDC 231900
MTRP28
METAR KP28 231856Z AUTO 17003KT 22/16 A3006 RMK AO1 SLP170 T02170156





000
SAUS43 KDDC 231800
MTRP28
METAR KP28 231756Z AUTO 20004KT 20/16 A3009 RMK AO1 SLP180 T02000156
10200 20156 58007





000
SAUS43 KDDC 231800
MTRP28
METAR KP28 231756Z AUTO 20004KT 20/16 A3009 RMK AO1 SLP180 T02000156
10200 20156 58007





000
SAUS43 KDDC 231700
MTRP28
METAR KP28 231656Z AUTO 21005KT 18/15 A3011 RMK AO1 SLP189 T01830150





000
SAUS43 KDDC 231700
MTRP28
METAR KP28 231656Z AUTO 21005KT 18/15 A3011 RMK AO1 SLP189 T01830150





000
SAUS43 KDDC 231600
MTRP28
METAR KP28 231556Z AUTO 19004KT 17/14 A3012 RMK AO1 SLP193 T01670144





000
SAUS43 KDDC 231600
MTRP28
METAR KP28 231556Z AUTO 19004KT 17/14 A3012 RMK AO1 SLP193 T01670144





000
SAUS43 KDDC 231500
MTRP28
METAR KP28 231456Z AUTO 18003KT 16/14 A3011 RMK AO1 SLP189 T01610139
53008





000
SAUS43 KDDC 231400
MTRP28
METAR KP28 231356Z AUTO 15003KT 16/14 A3010 RMK AO1 SLP185 T01560139





000
SAUS43 KDDC 231300
MTRP28
METAR KP28 231256Z AUTO 18005KT 16/14 A3008 RMK AO1 SLP180 T01560139





000
SAUS43 KDDC 231200
MTRP28
METAR KP28 231156Z AUTO 16004KT 16/14 A3008 RMK AO1 SLP181 60003
70006 T01560139 10156 20139 55000





000
SAUS43 KDDC 231100
MTRP28
METAR KP28 231056Z AUTO 12005KT 16/14 A3007 RMK AO1 SLP175 T01560139





000
SAUS43 KDDC 231000
MTRP28
METAR KP28 230956Z AUTO 14009KT 16/14 A3007 RMK AO1 SLP175 T01560139





000
SAUS43 KDDC 231000
MTRP28
METAR KP28 230956Z AUTO 14009KT 16/14 A3007 RMK AO1 SLP175 T01560139





000
SAUS43 KDDC 230900
MTRP28
METAR KP28 230856Z AUTO 09006KT 15/14 A3008 RMK AO1 SLP177 60003
T01500139 55004





000
SAUS43 KDDC 230800
MTRP28
METAR KP28 230756Z AUTO 22003KT 15/14 A3007 RMK AO1 SLP171 P0002
T01500139





000
SAUS43 KDDC 230700
MTRP28
METAR KP28 230656Z AUTO 20013KT 15/14 A3005 RMK AO1 SLP163 P0001
T01500144





000
SAUS43 KDDC 230600
MTRP28
METAR KP28 230556Z AUTO 00000KT 15/14 A3010 RMK AO1 SLP181 T01500139
10183 20150 402670128 53003





000
SAUS43 KDDC 230500
MTRP28
METAR KP28 230456Z AUTO 18006KT 16/14 A3008 RMK AO1 SLP177 T01610144





000
SAUS43 KDDC 230500
MTRP28
METAR KP28 230456Z AUTO 18006KT 16/14 A3008 RMK AO1 SLP177 T01610144





000
SAUS43 KDDC 230400
MTRP28
METAR KP28 230356Z AUTO 18010KT 17/14 A3008 RMK AO1 SLP178 T01670139





000
SAUS43 KDDC 230400
MTRP28
METAR KP28 230356Z AUTO 18010KT 17/14 A3008 RMK AO1 SLP178 T01670139





000
SAUS43 KDDC 230300
MTRP28
METAR KP28 230256Z AUTO 19009KT 17/15 A3009 RMK AO1 SLP181 T01720150
51013





000
SAUS43 KDDC 230200
MTRP28
METAR KP28 230156Z AUTO 20010KT 18/15 A3007 RMK AO1 SLP178 T01780150





000
SAUS43 KDDC 230200
MTRP28
METAR KP28 230156Z AUTO 20010KT 18/15 A3007 RMK AO1 SLP178 T01780150





    US Dept of Commerce
    National Oceanic and Atmospheric Administration
    National Weather Service
    1325 East West Highway
    Silver Spring, MD 20910
    Page Author: NWS Internet Services Team
Disclaimer
Information Quality
Credits
Glossary
Privacy Policy
Freedom of Information Act (FOIA)
About Us
Career Opportunities